Time;durP1;ratioP1;P1;durP2;ratioP2;P2;SDS_P1;SDS_P2;PMS_P1;PMS_P2;Temp;Humidity;BMP_temperature;BMP_pressure;BME280_temperature;BME280_humidity;BME280_pressure;Samples;Min_cycle;Max_cycle;Signal;HPM_P1;HPM_P2
2020/12/03 00:01:00;;;;;;;;;;;0.00;99.90;;;;;;5117308;28;19968;-42
2020/12/03 00:03:29;;;;;;;;;;;0.00;99.90;;;;;;5117090;28;20383;-42
2020/12/03 00:05:57;;;;;;;;;;;-0.10;99.90;;;;;;5117305;28;19908;-42
2020/12/03 00:08:23;;;;;;;;;;;-0.10;99.90;;;;;;5117256;28;20362;-42
2020/12/03 00:10:48;;;;;;;;;;;-0.20;99.90;;;;;;5116813;28;19942;-42
2020/12/03 00:13:19;;;;;;;;;;;-0.20;99.90;;;;;;5098799;28;19923;-42
2020/12/03 00:15:49;;;;;;;;;;;-0.20;99.90;;;;;;5117120;28;19934;-42
2020/12/03 00:18:15;;;;;;;;;;;-0.20;99.90;;;;;;5116824;28;19908;-42
2020/12/03 00:20:40;;;;;;;;;;;-0.20;99.90;;;;;;5117280;28;20378;-42
2020/12/03 00:23:06;;;;;;;;;;;-0.10;99.90;;;;;;5116921;28;19915;-42
2020/12/03 00:25:32;;;;;;;;;;;-0.10;99.90;;;;;;5117115;28;19908;-42
2020/12/03 00:27:57;;;;;;;;;;;-0.10;99.90;;;;;;5117123;28;19908;-42
2020/12/03 00:30:24;;;;;;;;;;;0.00;99.90;;;;;;5116849;28;20003;-42
2020/12/03 00:32:50;;;;;;;;;;;0.00;99.90;;;;;;5117308;28;19912;-42
2020/12/03 00:35:17;;;;;;;;;;;0.00;99.90;;;;;;5116469;28;19920;-42
2020/12/03 00:37:43;;;;;;;;;;;0.10;99.90;;;;;;5117268;28;19915;-42
2020/12/03 00:40:09;;;;;;;;;;;0.10;99.90;;;;;;5116655;28;19915;-42
2020/12/03 00:42:34;;;;;;;;;;;0.10;99.90;;;;;;5116905;28;19908;-42
2020/12/03 00:45:00;;;;;;;;;;;0.10;99.90;;;;;;5116824;28;19912;-42
2020/12/03 00:47:26;;;;;;;;;;;0.10;99.90;;;;;;5116525;28;19935;-42
2020/12/03 00:49:52;;;;;;;;;;;0.10;99.90;;;;;;5098103;28;19914;-42
2020/12/03 00:52:17;;;;;;;;;;;0.00;99.90;;;;;;5116301;28;20015;-42
2020/12/03 00:54:43;;;;;;;;;;;0.10;99.90;;;;;;5097895;28;19912;-42
2020/12/03 00:57:10;;;;;;;;;;;0.10;99.90;;;;;;5116826;28;20341;-42
2020/12/03 00:59:37;;;;;;;;;;;0.10;99.90;;;;;;5116009;28;19915;-41
2020/12/03 01:02:04;;;;;;;;;;;0.10;99.90;;;;;;5116221;28;19915;-42
2020/12/03 01:04:30;;;;;;;;;;;0.10;99.90;;;;;;5116732;28;19908;-42
2020/12/03 01:06:55;;;;;;;;;;;0.10;99.90;;;;;;5115838;28;19908;-42
2020/12/03 01:09:21;;;;;;;;;;;0.10;99.90;;;;;;5116080;28;19912;-42
2020/12/03 01:11:47;;;;;;;;;;;0.10;99.90;;;;;;5115960;28;20376;-42
2020/12/03 01:14:12;;;;;;;;;;;0.20;99.90;;;;;;5116298;28;19950;-41
2020/12/03 01:16:38;;;;;;;;;;;0.20;99.90;;;;;;5116970;28;19908;-42
2020/12/03 01:19:03;;;;;;;;;;;0.20;99.90;;;;;;5115128;28;19998;-42
2020/12/03 01:21:29;;;;;;;;;;;0.10;99.90;;;;;;5097549;28;19912;-41
2020/12/03 01:23:55;;;;;;;;;;;0.20;99.90;;;;;;5115718;28;19940;-42
2020/12/03 01:26:20;;;;;;;;;;;0.20;99.90;;;;;;5115733;28;20006;-42
2020/12/03 01:28:46;;;;;;;;;;;0.30;99.90;;;;;;5115914;28;19915;-42
2020/12/03 01:31:12;;;;;;;;;;;0.20;99.90;;;;;;5115552;28;19908;-42
2020/12/03 01:33:39;;;;;;;;;;;0.20;99.90;;;;;;5116160;28;19932;-41
2020/12/03 01:36:05;;;;;;;;;;;0.20;99.90;;;;;;5097179;28;19915;-42
2020/12/03 01:38:30;;;;;;;;;;;0.30;99.90;;;;;;5115201;28;19912;-42
2020/12/03 01:40:56;;;;;;;;;;;0.30;99.90;;;;;;5115483;28;19915;-42
2020/12/03 01:43:21;;;;;;;;;;;0.30;99.90;;;;;;5096785;28;19907;-41
2020/12/03 01:46:05;;;;;;;;;;;0.30;99.90;;;;;;5115315;28;19915;-41
2020/12/03 01:48:33;;;;;;;;;;;0.30;99.90;;;;;;5115662;28;19919;-41
2020/12/03 01:51:00;;;;;;;;;;;0.30;99.90;;;;;;5096770;28;19958;-41
2020/12/03 01:53:26;;;;;;;;;;;0.30;99.90;;;;;;5115703;28;19916;-41
2020/12/03 01:55:52;;;;;;;;;;;0.30;99.90;;;;;;5115154;28;19912;-42
2020/12/03 01:58:33;;;;;;;;;;;0.40;99.90;;;;;;5096604;28;20285;-42
2020/12/03 02:00:59;;;;;;;;;;;0.40;99.90;;;;;;5115636;28;19991;-42
2020/12/03 02:03:25;;;;;;;;;;;0.50;99.90;;;;;;5114762;28;20364;-42
2020/12/03 02:05:50;;;;;;;;;;;0.50;99.90;;;;;;5114986;28;19912;-41
2020/12/03 02:08:16;;;;;;;;;;;0.50;99.90;;;;;;5115481;28;19912;-41
2020/12/03 02:10:42;;;;;;;;;;;0.60;99.90;;;;;;5114573;28;19973;-42
2020/12/03 02:13:08;;;;;;;;;;;0.60;99.90;;;;;;5115117;28;20311;-42
2020/12/03 02:15:36;;;;;;;;;;;0.60;99.90;;;;;;5114850;28;19960;-42
2020/12/03 02:18:05;;;;;;;;;;;0.60;99.90;;;;;;5114801;28;19912;-42
2020/12/03 02:20:31;;;;;;;;;;;0.60;99.90;;;;;;5115026;28;19956;-42
2020/12/03 02:22:57;;;;;;;;;;;0.60;99.90;;;;;;5096217;28;19908;-41
2020/12/03 02:25:23;;;;;;;;;;;0.60;99.90;;;;;;5115009;28;19915;-42
2020/12/03 02:27:48;;;;;;;;;;;0.60;99.90;;;;;;5114943;28;19953;-42
2020/12/03 02:30:14;;;;;;;;;;;0.60;99.90;;;;;;5113826;28;19953;-42
2020/12/03 02:32:40;;;;;;;;;;;0.60;99.90;;;;;;5114864;28;20495;-41
2020/12/03 02:35:10;;;;;;;;;;;0.60;99.90;;;;;;5114948;28;20357;-40
2020/12/03 02:37:35;;;;;;;;;;;0.60;99.90;;;;;;5115219;28;20394;-41
2020/12/03 02:40:01;;;;;;;;;;;0.70;99.90;;;;;;5114542;28;19908;-41
2020/12/03 02:42:27;;;;;;;;;;;0.70;99.90;;;;;;5114270;28;19915;-41
2020/12/03 02:44:53;;;;;;;;;;;0.60;99.90;;;;;;5096256;28;20377;-41
2020/12/03 02:47:20;;;;;;;;;;;0.60;99.90;;;;;;5114228;28;19908;-41
2020/12/03 02:49:46;;;;;;;;;;;0.70;99.90;;;;;;5115055;28;19908;-41
2020/12/03 02:52:17;;;;;;;;;;;0.60;99.90;;;;;;5114340;28;19919;-41
2020/12/03 02:54:43;;;;;;;;;;;0.60;99.90;;;;;;5114131;28;20262;-42
2020/12/03 02:57:09;;;;;;;;;;;0.70;99.90;;;;;;5114673;28;20041;-41
2020/12/03 02:59:35;;;;;;;;;;;0.70;99.90;;;;;;5114377;28;20288;-41
2020/12/03 03:02:01;;;;;;;;;;;0.70;99.90;;;;;;5096071;28;20388;-41
2020/12/03 03:04:26;;;;;;;;;;;0.70;99.90;;;;;;5114632;28;19908;-41
2020/12/03 03:06:52;;;;;;;;;;;0.70;99.90;;;;;;5095779;28;20250;-42
2020/12/03 03:09:18;;;;;;;;;;;0.70;99.90;;;;;;5095876;28;19953;-43
2020/12/03 03:11:44;;;;;;;;;;;0.70;99.90;;;;;;5114534;28;19915;-42
2020/12/03 03:14:09;;;;;;;;;;;0.80;99.90;;;;;;5113949;28;19947;-42
2020/12/03 03:16:35;;;;;;;;;;;0.80;99.90;;;;;;5114766;28;19908;-42
2020/12/03 03:19:01;;;;;;;;;;;0.70;99.90;;;;;;5095660;28;19911;-42
2020/12/03 03:21:26;;;;;;;;;;;0.70;99.90;;;;;;5114473;28;20003;-42
2020/12/03 03:23:52;;;;;;;;;;;0.70;99.90;;;;;;5114752;28;19915;-42
2020/12/03 03:26:18;;;;;;;;;;;0.70;99.90;;;;;;5113834;28;20404;-42
2020/12/03 03:28:44;;;;;;;;;;;0.70;99.90;;;;;;5095910;28;19952;-42
2020/12/03 03:31:09;;;;;;;;;;;0.70;99.90;;;;;;5129582;28;19915;-42
2020/12/03 03:33:35;;;;;;;;;;;0.60;99.90;;;;;;5114218;28;19923;-42
2020/12/03 03:36:00;;;;;;;;;;;0.70;99.90;;;;;;5114342;28;19919;-42
2020/12/03 03:38:26;;;;;;;;;;;0.70;99.90;;;;;;5114036;28;19908;-42
2020/12/03 03:40:52;;;;;;;;;;;0.70;99.90;;;;;;5096622;28;19908;-42
2020/12/03 03:43:17;;;;;;;;;;;0.80;99.90;;;;;;5117190;28;20280;-42
2020/12/03 03:45:43;;;;;;;;;;;0.80;99.90;;;;;;5117996;28;19908;-42
2020/12/03 03:48:08;;;;;;;;;;;0.80;99.90;;;;;;5118242;28;19908;-42
2020/12/03 03:50:34;;;;;;;;;;;0.80;99.90;;;;;;5099110;28;19908;-42
2020/12/03 03:53:00;;;;;;;;;;;0.80;99.90;;;;;;5099236;28;20326;-42
2020/12/03 03:55:25;;;;;;;;;;;0.80;99.90;;;;;;5098973;28;19911;-42
2020/12/03 03:57:51;;;;;;;;;;;0.70;99.90;;;;;;5118021;28;19908;-41
2020/12/03 04:00:18;;;;;;;;;;;0.70;99.90;;;;;;5117506;28;19915;-42
2020/12/03 04:02:44;;;;;;;;;;;0.70;99.90;;;;;;5117932;28;20258;-42
2020/12/03 04:05:10;;;;;;;;;;;0.70;99.90;;;;;;5117639;28;19932;-41
2020/12/03 04:07:36;;;;;;;;;;;0.70;99.90;;;;;;5098709;28;20357;-42
2020/12/03 04:10:02;;;;;;;;;;;0.60;99.90;;;;;;5098754;28;20128;-42
2020/12/03 04:12:28;;;;;;;;;;;0.60;99.90;;;;;;5117450;28;19912;-42
2020/12/03 04:14:53;;;;;;;;;;;0.60;99.90;;;;;;5098606;28;19912;-42
2020/12/03 04:17:19;;;;;;;;;;;0.60;99.90;;;;;;5117715;28;19908;-42
2020/12/03 04:19:45;;;;;;;;;;;0.60;99.90;;;;;;5117608;28;19908;-42
2020/12/03 04:22:10;;;;;;;;;;;0.60;99.90;;;;;;5116989;28;20253;-42
2020/12/03 04:24:36;;;;;;;;;;;0.60;99.90;;;;;;5098653;28;19953;-41
2020/12/03 04:27:02;;;;;;;;;;;0.50;99.90;;;;;;5117227;28;19988;-41
2020/12/03 04:29:27;;;;;;;;;;;0.40;99.90;;;;;;5117236;28;20405;-41
2020/12/03 04:31:53;;;;;;;;;;;0.30;99.90;;;;;;5098551;28;20254;-42
2020/12/03 04:34:18;;;;;;;;;;;0.20;99.90;;;;;;5116421;28;19957;-42
2020/12/03 04:36:44;;;;;;;;;;;0.20;99.90;;;;;;5116699;28;19908;-41
2020/12/03 04:39:10;;;;;;;;;;;0.20;99.90;;;;;;5098094;28;19947;-41
2020/12/03 04:41:35;;;;;;;;;;;0.10;99.90;;;;;;5116918;28;19907;-41
2020/12/03 04:44:14;;;;;;;;;;;0.10;99.90;;;;;;5116866;28;19955;-42
2020/12/03 04:46:43;;;;;;;;;;;0.10;99.90;;;;;;5116322;28;19911;-41
2020/12/03 04:49:23;;;;;;;;;;;0.10;99.90;;;;;;5116809;28;19950;-42
2020/12/03 04:52:07;;;;;;;;;;;0.10;99.90;;;;;;5116503;28;19918;-42
2020/12/03 04:54:47;;;;;;;;;;;0.20;99.90;;;;;;5115570;28;19977;-41
2020/12/03 04:57:25;;;;;;;;;;;0.20;99.90;;;;;;5116617;28;20369;-41
2020/12/03 04:59:53;;;;;;;;;;;0.30;99.90;;;;;;5116569;28;20358;-41
2020/12/03 05:02:50;;;;;;;;;;;0.20;99.90;;;;;;5116177;28;20373;-42
2020/12/03 05:05:37;;;;;;;;;;;0.30;99.90;;;;;;5116503;28;19946;-41
2020/12/03 05:08:10;;;;;;;;;;;0.20;99.90;;;;;;5116282;28;19908;-41
2020/12/03 05:10:39;;;;;;;;;;;0.30;99.90;;;;;;5116258;28;20239;-41
2020/12/03 05:13:09;;;;;;;;;;;0.30;99.90;;;;;;5116252;28;19955;-41
2020/12/03 05:15:35;;;;;;;;;;;0.40;99.90;;;;;;5116324;28;19919;-41
2020/12/03 05:18:19;;;;;;;;;;;0.40;99.90;;;;;;5097626;28;19911;-41
2020/12/03 05:20:49;;;;;;;;;;;0.40;99.90;;;;;;5115776;28;19912;-41
2020/12/03 05:23:22;;;;;;;;;;;0.40;99.90;;;;;;5097262;28;19930;-42
2020/12/03 05:25:49;;;;;;;;;;;0.40;99.90;;;;;;5116051;28;20372;-41
2020/12/03 05:28:20;;;;;;;;;;;0.30;99.90;;;;;;5116021;28;19908;-41
2020/12/03 05:30:50;;;;;;;;;;;0.30;99.90;;;;;;5115397;28;20007;-41
2020/12/03 05:33:15;;;;;;;;;;;0.40;99.90;;;;;;5097271;28;20254;-41
2020/12/03 05:35:41;;;;;;;;;;;0.40;99.90;;;;;;5115801;28;19918;-41
2020/12/03 05:38:20;;;;;;;;;;;0.30;99.90;;;;;;5115476;28;19961;-41
2020/12/03 05:41:06;;;;;;;;;;;0.30;99.90;;;;;;5115646;28;19915;-41
2020/12/03 05:43:32;;;;;;;;;;;0.20;99.90;;;;;;5114763;28;19934;-41
2020/12/03 05:46:00;;;;;;;;;;;0.10;99.90;;;;;;5115614;28;20254;-41
2020/12/03 05:48:25;;;;;;;;;;;0.10;99.90;;;;;;5115881;28;19932;-41
2020/12/03 05:50:52;;;;;;;;;;;0.00;99.90;;;;;;5115009;28;19998;-41
2020/12/03 05:53:19;;;;;;;;;;;0.00;99.90;;;;;;5115769;28;19912;-41
2020/12/03 05:56:05;;;;;;;;;;;-0.10;99.90;;;;;;5096603;28;20274;-41
2020/12/03 05:58:33;;;;;;;;;;;-0.10;99.90;;;;;;5114671;28;19936;-41
2020/12/03 06:01:13;;;;;;;;;;;-0.10;99.90;;;;;;5115073;28;20049;-41
2020/12/03 06:03:59;;;;;;;;;;;0.00;99.90;;;;;;5115115;28;19908;-41
2020/12/03 06:06:44;;;;;;;;;;;0.10;99.90;;;;;;5114891;28;20368;-40
2020/12/03 06:09:29;;;;;;;;;;;0.10;99.90;;;;;;5115293;28;19908;-41
2020/12/03 06:12:07;;;;;;;;;;;0.10;99.90;;;;;;5115120;28;20003;-41
2020/12/03 06:14:51;;;;;;;;;;;0.20;99.90;;;;;;5096395;28;19908;-41
2020/12/03 06:17:26;;;;;;;;;;;0.20;99.90;;;;;;5114808;28;19908;-41
2020/12/03 06:20:00;;;;;;;;;;;0.20;99.90;;;;;;5096547;28;20377;-41
2020/12/03 06:22:54;;;;;;;;;;;0.30;99.90;;;;;;5114765;28;19915;-41
2020/12/03 06:25:32;;;;;;;;;;;0.30;99.90;;;;;;5052361;28;19959;-40
2020/12/03 06:28:16;;;;;;;;;;;0.30;99.90;;;;;;5051940;28;20380;-40
2020/12/03 06:30:48;;;;;;;;;;;0.30;99.90;;;;;;5034986;28;20366;-40
2020/12/03 06:33:25;;;;;;;;;;;0.30;99.90;;;;;;5052410;28;19924;-40
2020/12/03 06:35:54;;;;;;;;;;;0.40;99.90;;;;;;5052341;28;20508;-41
2020/12/03 06:38:39;;;;;;;;;;;0.40;99.90;;;;;;5051657;28;20006;-41
2020/12/03 06:41:14;;;;;;;;;;;0.40;99.90;;;;;;5035172;28;20003;-41
2020/12/03 06:43:45;;;;;;;;;;;0.40;99.90;;;;;;5051872;28;19909;-40
2020/12/03 06:46:14;;;;;;;;;;;0.50;99.90;;;;;;5051971;28;19913;-41
2020/12/03 06:49:00;;;;;;;;;;;0.50;99.90;;;;;;5035152;28;19916;-41
2020/12/03 06:51:25;;;;;;;;;;;0.50;99.90;;;;;;5050935;28;19909;-41
2020/12/03 06:53:54;;;;;;;;;;;0.60;99.90;;;;;;5051734;28;19916;-41
2020/12/03 06:56:19;;;;;;;;;;;0.60;99.90;;;;;;5052036;28;19916;-41
2020/12/03 06:59:03;;;;;;;;;;;0.60;99.90;;;;;;5051719;28;19909;-41
2020/12/03 07:01:37;;;;;;;;;;;0.60;99.90;;;;;;5076980;28;19956;-41
2020/12/03 07:04:09;;;;;;;;;;;0.60;99.90;;;;;;5114520;28;19915;-41
2020/12/03 07:06:38;;;;;;;;;;;0.50;99.90;;;;;;5113677;28;19907;-41
2020/12/03 07:09:22;;;;;;;;;;;0.60;99.90;;;;;;5114463;28;19915;-41
2020/12/03 07:11:57;;;;;;;;;;;0.60;99.90;;;;;;5095813;28;19920;-41
2020/12/03 07:14:41;;;;;;;;;;;0.70;99.90;;;;;;5113886;28;19958;-41
2020/12/03 07:17:10;;;;;;;;;;;0.80;99.90;;;;;;5115623;28;19916;-40
2020/12/03 07:19:37;;;;;;;;;;;0.80;99.90;;;;;;5117772;28;19908;-41
2020/12/03 07:22:11;;;;;;;;;;;0.80;99.90;;;;;;5118156;28;19914;-41
2020/12/03 07:24:38;;;;;;;;;;;0.80;99.90;;;;;;5118355;28;20315;-41
2020/12/03 07:27:21;;;;;;;;;;;0.80;99.90;;;;;;5117930;28;19908;-41
2020/12/03 07:29:58;;;;;;;;;;;1.00;99.90;;;;;;5133880;27;19908;-42
2020/12/03 07:32:42;;;;;;;;;;;1.00;99.90;;;;;;5117894;28;19916;-42
2020/12/03 07:35:20;;;;;;;;;;;1.10;99.90;;;;;;5118144;28;19915;-42
2020/12/03 07:37:50;;;;;;;;;;;1.30;99.90;;;;;;5117581;28;19980;-41
2020/12/03 07:40:19;;;;;;;;;;;1.40;99.90;;;;;;5118214;28;20308;-41
2020/12/03 07:42:46;;;;;;;;;;;1.40;99.90;;;;;;5117695;28;19908;-41
2020/12/03 07:45:32;;;;;;;;;;;1.60;99.90;;;;;;5117569;28;19908;-41
2020/12/03 07:48:09;;;;;;;;;;;1.70;99.90;;;;;;5117968;28;20277;-40
2020/12/03 07:50:37;;;;;;;;;;;1.70;99.90;;;;;;5117742;28;19908;-41
2020/12/03 07:53:15;;;;;;;;;;;1.80;99.90;;;;;;5099075;28;20139;-41
2020/12/03 07:55:42;;;;;;;;;;;1.80;99.90;;;;;;5117366;28;19912;-41
2020/12/03 07:58:28;;;;;;;;;;;1.80;99.90;;;;;;5117874;28;20017;-41
2020/12/03 08:00:54;;;;;;;;;;;1.80;99.90;;;;;;5117243;28;20356;-41
2020/12/03 08:03:38;;;;;;;;;;;1.90;99.90;;;;;;5116975;28;19908;-41
2020/12/03 08:06:11;;;;;;;;;;;1.90;99.90;;;;;;5117728;28;19908;-41
2020/12/03 08:08:38;;;;;;;;;;;1.90;99.90;;;;;;5117063;28;19973;-41
2020/12/03 08:11:04;;;;;;;;;;;2.00;99.90;;;;;;5116811;28;20401;-41
2020/12/03 08:13:33;;;;;;;;;;;2.10;99.90;;;;;;5098560;28;19939;-41
2020/12/03 08:16:02;;;;;;;;;;;2.10;99.90;;;;;;5116887;28;19908;-41
2020/12/03 08:18:38;;;;;;;;;;;2.10;99.90;;;;;;5099015;28;19908;-41
2020/12/03 08:21:04;;;;;;;;;;;2.00;99.90;;;;;;5116839;28;19908;-41
2020/12/03 08:23:30;;;;;;;;;;;2.10;99.90;;;;;;5116965;28;19959;-41
2020/12/03 08:25:55;;;;;;;;;;;2.20;99.90;;;;;;5116901;28;19911;-41
2020/12/03 08:28:23;;;;;;;;;;;2.30;99.90;;;;;;5115683;28;19911;-41
2020/12/03 08:30:52;;;;;;;;;;;2.30;99.90;;;;;;5098241;28;19915;-42
2020/12/03 08:33:27;;;;;;;;;;;2.30;99.90;;;;;;5116323;28;19915;-41
2020/12/03 08:36:03;;;;;;;;;;;2.40;99.90;;;;;;5116823;28;19912;-42
2020/12/03 08:38:38;;;;;;;;;;;2.40;99.90;;;;;;5116238;28;20011;-41
2020/12/03 08:41:07;;;;;;;;;;;2.50;99.90;;;;;;5116712;28;19994;-42
2020/12/03 08:43:39;;;;;;;;;;;2.60;99.90;;;;;;5116359;28;19907;-42
2020/12/03 08:46:12;;;;;;;;;;;2.70;99.90;;;;;;5116700;28;20258;-41
2020/12/03 08:48:38;;;;;;;;;;;2.90;99.90;;;;;;5116785;28;19914;-41
2020/12/03 08:51:07;;;;;;;;;;;3.00;99.90;;;;;;5116207;28;19965;-42
2020/12/03 08:53:34;;;;;;;;;;;3.00;99.90;;;;;;5116457;28;20327;-41
2020/12/03 08:56:18;;;;;;;;;;;3.20;99.90;;;;;;5116132;28;19915;-41
2020/12/03 08:59:04;;;;;;;;;;;3.30;99.90;;;;;;5115872;28;19908;-42
2020/12/03 09:01:31;;;;;;;;;;;3.50;99.90;;;;;;5115432;28;20281;-41
2020/12/03 09:03:58;;;;;;;;;;;3.60;99.90;;;;;;5115841;28;20403;-40
2020/12/03 09:06:28;;;;;;;;;;;3.70;99.90;;;;;;5115691;28;19912;-41
2020/12/03 09:08:54;;;;;;;;;;;3.80;99.90;;;;;;5081700;28;19957;-41
2020/12/03 09:11:21;;;;;;;;;;;4.00;99.90;;;;;;5076506;28;19920;-41
2020/12/03 09:13:47;;;;;;;;;;;4.00;99.90;;;;;;5075341;28;19941;-41
2020/12/03 09:16:13;;;;;;;;;;;4.00;99.90;;;;;;5073683;28;19913;-41
2020/12/03 09:18:41;;;;;;;;;;;4.00;99.90;;;;;;5074801;28;19909;-41
2020/12/03 09:21:07;;;;;;;;;;;3.90;99.90;;;;;;5075592;28;19908;-40
2020/12/03 09:23:35;;;;;;;;;;;4.00;99.90;;;;;;5075296;28;19916;-40
2020/12/03 09:26:10;;;;;;;;;;;3.90;99.90;;;;;;5075501;28;20318;-40
2020/12/03 09:28:35;;;;;;;;;;;4.00;99.90;;;;;;5074857;28;19908;-40
2020/12/03 09:31:01;;;;;;;;;;;4.00;99.90;;;;;;5075073;28;19914;-40
2020/12/03 09:33:27;;;;;;;;;;;4.00;99.90;;;;;;5074885;28;19916;-40
2020/12/03 09:35:54;;;;;;;;;;;4.10;99.90;;;;;;5074929;28;20301;-41
2020/12/03 09:38:20;;;;;;;;;;;4.30;99.90;;;;;;5074310;28;20259;-39
2020/12/03 09:40:46;;;;;;;;;;;4.50;99.90;;;;;;5074272;28;19999;-40
2020/12/03 09:43:14;;;;;;;;;;;4.70;99.90;;;;;;5074538;28;20000;-40
2020/12/03 09:45:42;;;;;;;;;;;4.70;99.90;;;;;;5074737;28;19908;-40
2020/12/03 09:48:12;;;;;;;;;;;4.80;99.90;;;;;;5075129;28;19917;-40
2020/12/03 09:50:42;;;;;;;;;;;5.10;99.90;;;;;;5074683;28;19916;-40
2020/12/03 09:53:18;;;;;;;;;;;5.10;99.90;;;;;;5074448;28;20358;-40
2020/12/03 09:55:44;;;;;;;;;;;5.30;99.90;;;;;;5074546;28;19998;-40
2020/12/03 09:58:09;;;;;;;;;;;5.20;99.90;;;;;;5074743;28;19958;-40
2020/12/03 10:00:39;;;;;;;;;;;5.30;99.90;;;;;;5074418;28;19912;-40
2020/12/03 10:03:23;;;;;;;;;;;5.60;99.90;;;;;;5073988;28;20007;-40
2020/12/03 10:06:08;;;;;;;;;;;5.80;99.90;;;;;;5074426;28;19954;-40
2020/12/03 10:08:39;;;;;;;;;;;5.90;99.90;;;;;;5074096;28;20427;-40
2020/12/03 10:11:24;;;;;;;;;;;5.90;99.90;;;;;;5105275;28;20322;-40
2020/12/03 10:13:58;;;;;;;;;;;6.10;99.90;;;;;;5096612;28;19916;-40
2020/12/03 10:16:27;;;;;;;;;;;6.30;99.90;;;;;;5114906;28;19908;-40
2020/12/03 10:18:55;;;;;;;;;;;6.50;99.90;;;;;;5096288;28;19908;-40
2020/12/03 10:21:28;;;;;;;;;;;6.60;99.90;;;;;;5115303;28;19947;-42
2020/12/03 10:23:57;;;;;;;;;;;6.80;99.90;;;;;;5096375;28;19960;-40
2020/12/03 10:26:38;;;;;;;;;;;7.20;99.90;;;;;;5114563;28;20318;-41
2020/12/03 10:29:10;;;;;;;;;;;7.50;99.90;;;;;;5096370;28;19915;-42
2020/12/03 10:31:36;;;;;;;;;;;7.90;99.20;;;;;;5114548;28;20010;-41
2020/12/03 10:34:02;;;;;;;;;;;8.40;96.40;;;;;;5096144;28;20013;-42
2020/12/03 10:36:40;;;;;;;;;;;8.80;93.60;;;;;;5114414;28;19908;-41
2020/12/03 10:39:08;;;;;;;;;;;8.80;96.40;;;;;;5114235;28;19908;-41
2020/12/03 10:41:36;;;;;;;;;;;8.40;96.30;;;;;;5114454;28;19912;-42
2020/12/03 10:44:04;;;;;;;;;;;7.90;96.10;;;;;;5114464;28;19907;-43
2020/12/03 10:46:31;;;;;;;;;;;7.80;97.90;;;;;;5095754;28;20331;-42
2020/12/03 10:48:58;;;;;;;;;;;8.60;92.20;;;;;;5114206;28;19908;-41
2020/12/03 10:51:23;;;;;;;;;;;8.70;92.90;;;;;;5114384;28;19915;-41
2020/12/03 10:53:50;;;;;;;;;;;9.20;91.50;;;;;;5119108;28;19923;-44
2020/12/03 10:56:23;;;;;;;;;;;9.60;81.70;;;;;;5118699;28;20026;-43
2020/12/03 10:59:11;;;;;;;;;;;9.70;78.30;;;;;;5118643;28;19915;-42
2020/12/03 11:01:37;;;;;;;;;;;9.90;73.90;;;;;;5118274;28;19999;-42
2020/12/03 11:04:06;;;;;;;;;;;9.10;76.70;;;;;;5118284;28;19962;-43
2020/12/03 11:06:32;;;;;;;;;;;8.90;85.10;;;;;;5118128;28;20389;-42
2020/12/03 11:08:59;;;;;;;;;;;9.30;77.70;;;;;;5118040;28;19915;-42
2020/12/03 11:11:31;;;;;;;;;;;9.20;84.00;;;;;;5117506;28;20361;-42
2020/12/03 11:13:56;;;;;;;;;;;9.70;76.40;;;;;;5118529;28;19937;-41
2020/12/03 11:16:23;;;;;;;;;;;9.30;78.80;;;;;;5118305;28;19908;-40
2020/12/03 11:18:49;;;;;;;;;;;9.20;80.50;;;;;;5118143;28;20281;-40
2020/12/03 11:21:25;;;;;;;;;;;8.80;80.20;;;;;;5118489;28;19915;-43
2020/12/03 11:24:09;;;;;;;;;;;8.70;81.30;;;;;;5117860;28;19954;-42
2020/12/03 11:26:39;;;;;;;;;;;8.80;80.10;;;;;;5117777;28;19915;-42
2020/12/03 11:29:09;;;;;;;;;;;8.20;82.40;;;;;;5117889;28;19908;-43
2020/12/03 11:31:35;;;;;;;;;;;7.90;91.20;;;;;;5117352;28;19998;-43
2020/12/03 11:34:00;;;;;;;;;;;8.00;90.90;;;;;;5117779;28;19912;-43
2020/12/03 11:36:35;;;;;;;;;;;8.00;92.10;;;;;;5117819;28;19908;-41
2020/12/03 11:39:02;;;;;;;;;;;8.20;88.60;;;;;;5117531;28;19912;-41
2020/12/03 11:41:40;;;;;;;;;;;7.90;89.00;;;;;;5118159;28;20281;-43
2020/12/03 11:49:06;;;;;;;;;;;7.80;91.10;;;;;;5117820;28;19908;-42
2020/12/03 11:51:33;;;;;;;;;;;7.80;92.20;;;;;;5117394;28;19908;-43
2020/12/03 11:54:00;;;;;;;;;;;7.70;93.40;;;;;;5117380;28;19923;-43
2020/12/03 11:56:28;;;;;;;;;;;7.60;93.40;;;;;;5117481;28;19961;-39
2020/12/03 11:59:09;;;;;;;;;;;7.50;91.50;;;;;;5117117;28;20387;-40
2020/12/03 12:01:35;;;;;;;;;;;7.10;98.10;;;;;;5117501;28;19908;-40
2020/12/03 12:04:01;;;;;;;;;;;7.00;99.40;;;;;;5117219;28;19919;-41
2020/12/03 12:06:34;;;;;;;;;;;7.30;99.90;;;;;;5117056;28;20384;-40
2020/12/03 12:11:57;;;;;;;;;;;7.40;97.00;;;;;;5074474;28;19950;-42
2020/12/03 12:14:23;;;;;;;;;;;7.20;97.80;;;;;;5074866;28;19908;-41
2020/12/03 12:16:49;;;;;;;;;;;6.90;98.90;;;;;;5074963;28;19908;-41
2020/12/03 12:19:15;;;;;;;;;;;6.90;97.10;;;;;;5074251;28;19919;-41
2020/12/03 12:21:40;;;;;;;;;;;6.60;99.10;;;;;;5057696;28;19912;-41
2020/12/03 12:24:06;;;;;;;;;;;6.30;96.60;;;;;;5057539;28;20320;-41
2020/12/03 12:26:31;;;;;;;;;;;6.40;97.60;;;;;;5074259;28;19931;-41
2020/12/03 12:28:57;;;;;;;;;;;6.50;97.60;;;;;;5074277;28;19909;-41
2020/12/03 12:31:23;;;;;;;;;;;6.00;97.80;;;;;;5057147;28;19954;-40
2020/12/03 12:33:48;;;;;;;;;;;5.70;99.90;;;;;;5057265;28;19917;-40
2020/12/03 12:36:14;;;;;;;;;;;5.70;99.90;;;;;;5074612;28;20289;-41
2020/12/03 12:38:40;;;;;;;;;;;5.80;99.90;;;;;;5074011;28;20052;-41
2020/12/03 12:41:05;;;;;;;;;;;5.70;99.90;;;;;;5074174;28;20316;-41
2020/12/03 12:43:31;;;;;;;;;;;5.90;99.90;;;;;;5073675;28;20368;-41
2020/12/03 12:45:57;;;;;;;;;;;5.90;99.90;;;;;;5074407;28;19909;-41
2020/12/03 12:48:22;;;;;;;;;;;5.60;99.90;;;;;;5110770;28;20360;-40
2020/12/03 12:50:48;;;;;;;;;;;5.20;99.90;;;;;;5116174;28;19908;-40
2020/12/03 12:53:14;;;;;;;;;;;5.00;99.90;;;;;;5116081;28;20004;-41
2020/12/03 12:55:39;;;;;;;;;;;4.80;99.90;;;;;;5116392;28;19907;-43
2020/12/03 12:58:05;;;;;;;;;;;4.80;99.90;;;;;;5097628;28;19908;-41
2020/12/03 13:00:30;;;;;;;;;;;4.80;99.90;;;;;;5116637;28;20365;-41
2020/12/03 13:02:56;;;;;;;;;;;4.90;99.90;;;;;;5116223;28;20358;-41
2020/12/03 13:05:22;;;;;;;;;;;4.90;99.90;;;;;;5116369;28;19908;-42
2020/12/03 13:07:47;;;;;;;;;;;5.10;99.90;;;;;;5097567;28;20322;-42
2020/12/03 13:10:14;;;;;;;;;;;5.50;99.90;;;;;;5115986;28;20026;-43
2020/12/03 13:12:40;;;;;;;;;;;5.60;99.90;;;;;;5115873;28;19923;-41
2020/12/03 13:15:06;;;;;;;;;;;5.40;99.90;;;;;;5096430;28;19908;-42
2020/12/03 13:17:31;;;;;;;;;;;5.20;99.90;;;;;;5116257;28;19953;-42
2020/12/03 13:20:00;;;;;;;;;;;5.10;99.90;;;;;;5115796;28;20048;-42
2020/12/03 13:22:25;;;;;;;;;;;5.20;99.90;;;;;;5115991;28;19908;-41
2020/12/03 13:24:51;;;;;;;;;;;5.30;99.90;;;;;;5116359;28;19964;-42
2020/12/03 13:27:17;;;;;;;;;;;5.50;99.90;;;;;;5115465;28;20035;-42
2020/12/03 13:29:42;;;;;;;;;;;5.50;99.90;;;;;;5116297;28;20378;-43
2020/12/03 13:32:08;;;;;;;;;;;5.50;99.90;;;;;;5115552;28;19923;-41
2020/12/03 13:34:34;;;;;;;;;;;5.50;99.90;;;;;;5115596;28;19911;-42
2020/12/03 13:37:00;;;;;;;;;;;5.50;99.90;;;;;;5115775;28;19930;-41
2020/12/03 13:39:25;;;;;;;;;;;5.40;99.90;;;;;;5096866;28;19908;-41
2020/12/03 13:41:51;;;;;;;;;;;5.20;99.90;;;;;;5115886;28;20317;-41
2020/12/03 13:44:17;;;;;;;;;;;5.10;99.90;;;;;;5115442;28;19915;-40
2020/12/03 13:46:42;;;;;;;;;;;5.10;99.90;;;;;;5115324;28;19908;-41
2020/12/03 13:49:08;;;;;;;;;;;5.00;99.90;;;;;;5115573;28;19961;-41
2020/12/03 13:51:34;;;;;;;;;;;5.00;99.90;;;;;;5096609;28;19912;-42
2020/12/03 13:53:59;;;;;;;;;;;4.90;99.90;;;;;;5115358;28;19965;-41
2020/12/03 13:56:25;;;;;;;;;;;5.00;99.90;;;;;;5096836;28;19969;-41
2020/12/03 13:58:51;;;;;;;;;;;5.10;99.90;;;;;;5114695;28;19918;-42
2020/12/03 14:01:17;;;;;;;;;;;5.10;99.90;;;;;;5115316;28;20373;-42
2020/12/03 14:03:43;;;;;;;;;;;5.10;99.90;;;;;;5114973;28;19908;-42
2020/12/03 14:06:08;;;;;;;;;;;4.90;99.90;;;;;;5115374;28;19908;-43
2020/12/03 14:08:34;;;;;;;;;;;4.80;99.90;;;;;;5115016;28;20041;-40
2020/12/03 14:11:00;;;;;;;;;;;4.90;99.90;;;;;;5114495;28;19920;-41
2020/12/03 14:13:26;;;;;;;;;;;4.80;99.90;;;;;;5114564;28;19916;-41
2020/12/03 14:15:52;;;;;;;;;;;4.70;99.90;;;;;;5114375;28;19907;-41
2020/12/03 14:18:17;;;;;;;;;;;4.70;99.90;;;;;;5130283;27;19957;-41
2020/12/03 14:20:43;;;;;;;;;;;4.80;99.90;;;;;;5114783;28;19907;-41
2020/12/03 14:23:09;;;;;;;;;;;4.70;99.90;;;;;;5114355;28;19915;-41
2020/12/03 14:25:35;;;;;;;;;;;4.70;99.90;;;;;;5114711;28;20327;-41
2020/12/03 14:28:00;;;;;;;;;;;4.60;99.90;;;;;;5114253;28;20539;-40
2020/12/03 14:30:26;;;;;;;;;;;4.50;99.90;;;;;;5095938;28;19907;-41
2020/12/03 14:32:52;;;;;;;;;;;4.40;99.90;;;;;;5114862;28;19977;-41
2020/12/03 14:35:17;;;;;;;;;;;4.40;99.90;;;;;;5114515;28;19908;-41
2020/12/03 14:37:43;;;;;;;;;;;4.50;99.90;;;;;;5114684;28;20273;-40
2020/12/03 14:40:10;;;;;;;;;;;4.40;99.90;;;;;;5114676;28;19939;-41
2020/12/03 14:42:36;;;;;;;;;;;4.40;99.90;;;;;;5095871;28;19907;-40
2020/12/03 14:45:06;;;;;;;;;;;4.40;99.90;;;;;;5114615;28;20381;-39
2020/12/03 14:47:32;;;;;;;;;;;4.20;99.90;;;;;;5114342;28;19969;-39